メインページ
METAR-TAF:

METAR-TAF

空港 :

セントジョンズ, ニューファンドランド・ラブラドール州, カナダ

セントジョンズ国際空港

緯度: 47-37N, 経度: 052-44W, 海抜: 134m

現時点の気象観測

当レポートは1時間7分前の21:00(UTC)に作成
西の風 3kt
気温 -4°C
湿度 68%
気圧 1031 hPa
視程: 24.1km
高度2000ftの雲はほとんどない

METAR: CYYT 192100Z 26003KT 15SM FEW020 M04/M09 A3045 RMK SC1 CLD ESTD SLP321

時間: 18:37 (22:07 UTC)

予報

当レポートは4時間29分前の17:38(UTC)に作成
予報は19日の 18時(UTC)から 20日の 18時(UTC)まで有効
北/北西の風 12kt
視程: 10km
高度2500ftの雲は散在している
19日の 22時(UTC)から 19日の 24時(UTC)まで徐々に
西/北西の風 8kt
20日の 0300時(UTC)から
西/南西の風 8kt
視程: 10km
高度2000ftの雲は散在している
20日の 03時(UTC)から 20日の 08時(UTC)まで一時的に
高度2000ftの千切れ雲あり
20日の 0800時(UTC)から
西/南西の風 15kt
視程: 10km
高度2000ftの千切れ雲あり
高度15000ftの曇り
20日の 1500時(UTC)から
西の風 15kt、最大25ktの突風を伴う
視程: 10km
高度1500ftの雲は散在している
高度2500ftの千切れ雲あり

TAF: CYYT 191738Z 1918/2018 33012KT P6SM SCT025 BECMG 1922/1924 29008KT FM200300 24008KT P6SM SCT020 TEMPO 2003/2008 BKN020 FM200800 24015KT P6SM BKN020 OVC150 FM201500 26015G25KT P6SM SCT015 BKN025 RMK NXT FCST BY 200000Z

4,000以上の空港の気象観測と天気予報(METAR報とTAF報)

利用可能な観測所は地図上に黄色い丸と赤い丸で示す。

丸の上にカーソルを重ねると観測所名を参照できる。

次にクリックすると気象観測と天気予報を参照できる。

マップの切り替え:黒色「×」印の緑ボタンをクリックして拡大、「-」印の緑ボタンをクリックして縮小、緑色の三角印をクリックして隣りの地図に切り替え


METAR-TAF: